sensor_id;sensor_type;location;lat;lon;timestamp;P1;durP1;ratioP1;P2;durP2;ratioP2
75837;SDS011;64480;52.040;113.502;2023-05-10T00:05:17;84.43;;;43.33;;
75837;SDS011;64480;52.040;113.502;2023-05-10T00:08:20;67.85;;;41.55;;
75837;SDS011;64480;52.040;113.502;2023-05-10T00:11:23;74.03;;;39.17;;
75837;SDS011;64480;52.040;113.502;2023-05-10T00:14:27;68.93;;;41.63;;
75837;SDS011;64480;52.040;113.502;2023-05-10T00:20:59;67.65;;;42.08;;
75837;SDS011;64480;52.040;113.502;2023-05-10T00:24:02;76.30;;;46.00;;
75837;SDS011;64480;52.040;113.502;2023-05-10T00:27:06;75.38;;;44.50;;
75837;SDS011;64480;52.040;113.502;2023-05-10T00:30:09;76.43;;;44.30;;
75837;SDS011;64480;52.040;113.502;2023-05-10T00:33:13;69.32;;;41.42;;
75837;SDS011;64480;52.040;113.502;2023-05-10T00:36:16;73.15;;;42.35;;
75837;SDS011;64480;52.040;113.502;2023-05-10T00:39:20;68.43;;;41.13;;
75837;SDS011;64480;52.040;113.502;2023-05-10T00:42:23;69.28;;;42.65;;
75837;SDS011;64480;52.040;113.502;2023-05-10T00:45:29;72.45;;;40.92;;
75837;SDS011;64480;52.040;113.502;2023-05-10T00:48:33;66.82;;;41.38;;
75837;SDS011;64480;52.040;113.502;2023-05-10T00:51:37;69.47;;;39.65;;
75837;SDS011;64480;52.040;113.502;2023-05-10T00:54:41;72.75;;;37.55;;
75837;SDS011;64480;52.040;113.502;2023-05-10T00:57:45;64.88;;;36.10;;
75837;SDS011;64480;52.040;113.502;2023-05-10T01:00:48;71.28;;;37.20;;
75837;SDS011;64480;52.040;113.502;2023-05-10T01:03:53;68.43;;;33.75;;
75837;SDS011;64480;52.040;113.502;2023-05-10T01:06:58;70.43;;;35.13;;
75837;SDS011;64480;52.040;113.502;2023-05-10T01:10:01;70.63;;;34.70;;
75837;SDS011;64480;52.040;113.502;2023-05-10T01:13:05;71.05;;;36.72;;
75837;SDS011;64480;52.040;113.502;2023-05-10T01:16:08;64.57;;;32.67;;
75837;SDS011;64480;52.040;113.502;2023-05-10T01:19:22;67.07;;;34.40;;
75837;SDS011;64480;52.040;113.502;2023-05-10T01:30:08;73.78;;;33.30;;
75837;SDS011;64480;52.040;113.502;2023-05-10T01:36:31;62.70;;;33.92;;
75837;SDS011;64480;52.040;113.502;2023-05-10T01:39:49;65.30;;;33.58;;
75837;SDS011;64480;52.040;113.502;2023-05-10T01:43:21;65.05;;;31.75;;
75837;SDS011;64480;52.040;113.502;2023-05-10T01:46:35;72.05;;;33.38;;
75837;SDS011;64480;52.040;113.502;2023-05-10T01:49:42;55.08;;;29.95;;
75837;SDS011;64480;52.040;113.502;2023-05-10T01:52:51;63.17;;;31.08;;
75837;SDS011;64480;52.040;113.502;2023-05-10T01:55:57;63.10;;;32.30;;
75837;SDS011;64480;52.040;113.502;2023-05-10T01:59:04;55.50;;;33.42;;
75837;SDS011;64480;52.040;113.502;2023-05-10T02:02:11;48.03;;;28.83;;
75837;SDS011;64480;52.040;113.502;2023-05-10T02:08:41;56.53;;;27.83;;
75837;SDS011;64480;52.040;113.502;2023-05-10T02:11:45;47.63;;;27.42;;
75837;SDS011;64480;52.040;113.502;2023-05-10T02:14:51;50.10;;;26.67;;
75837;SDS011;64480;52.040;113.502;2023-05-10T02:17:56;49.58;;;26.00;;
75837;SDS011;64480;52.040;113.502;2023-05-10T02:21:01;46.35;;;24.58;;
75837;SDS011;64480;52.040;113.502;2023-05-10T02:24:05;41.45;;;23.25;;
75837;SDS011;64480;52.040;113.502;2023-05-10T02:27:11;41.35;;;23.83;;
75837;SDS011;64480;52.040;113.502;2023-05-10T02:30:16;36.95;;;22.75;;
75837;SDS011;64480;52.040;113.502;2023-05-10T02:36:27;29.08;;;18.58;;
75837;SDS011;64480;52.040;113.502;2023-05-10T02:39:31;29.88;;;19.48;;
75837;SDS011;64480;52.040;113.502;2023-05-10T02:46:01;31.90;;;19.77;;
75837;SDS011;64480;52.040;113.502;2023-05-10T02:49:05;32.65;;;20.45;;
75837;SDS011;64480;52.040;113.502;2023-05-10T02:52:15;32.13;;;20.02;;
75837;SDS011;64480;52.040;113.502;2023-05-10T02:55:40;35.15;;;21.60;;
75837;SDS011;64480;52.040;113.502;2023-05-10T03:17:06;32.55;;;19.92;;
75837;SDS011;64480;52.040;113.502;2023-05-10T03:20:26;29.45;;;20.20;;
75837;SDS011;64480;52.040;113.502;2023-05-10T03:23:39;37.63;;;20.63;;
75837;SDS011;64480;52.040;113.502;2023-05-10T03:27:25;30.85;;;18.10;;
75837;SDS011;64480;52.040;113.502;2023-05-10T03:30:31;29.80;;;20.23;;
75837;SDS011;64480;52.040;113.502;2023-05-10T03:33:45;26.70;;;19.20;;
75837;SDS011;64480;52.040;113.502;2023-05-10T03:37:00;28.90;;;19.52;;
75837;SDS011;64480;52.040;113.502;2023-05-10T03:51:59;30.20;;;20.88;;
75837;SDS011;64480;52.040;113.502;2023-05-10T03:55:05;26.95;;;19.35;;
75837;SDS011;64480;52.040;113.502;2023-05-10T03:58:17;45.28;;;30.88;;
75837;SDS011;64480;52.040;113.502;2023-05-10T04:01:38;32.97;;;17.42;;
75837;SDS011;64480;52.040;113.502;2023-05-10T04:04:43;24.90;;;18.00;;
75837;SDS011;64480;52.040;113.502;2023-05-10T04:07:47;34.58;;;18.77;;
75837;SDS011;64480;52.040;113.502;2023-05-10T04:11:10;28.50;;;17.92;;
75837;SDS011;64480;52.040;113.502;2023-05-10T04:14:16;40.47;;;17.60;;
75837;SDS011;64480;52.040;113.502;2023-05-10T04:17:19;28.25;;;16.38;;
75837;SDS011;64480;52.040;113.502;2023-05-10T04:20:26;26.20;;;16.17;;
75837;SDS011;64480;52.040;113.502;2023-05-10T04:23:43;32.65;;;16.85;;
75837;SDS011;64480;52.040;113.502;2023-05-10T04:26:47;31.17;;;16.48;;
75837;SDS011;64480;52.040;113.502;2023-05-10T04:32:57;27.05;;;16.95;;
75837;SDS011;64480;52.040;113.502;2023-05-10T04:36:01;24.13;;;16.05;;
75837;SDS011;64480;52.040;113.502;2023-05-10T04:39:08;22.30;;;15.55;;
75837;SDS011;64480;52.040;113.502;2023-05-10T04:42:22;31.05;;;15.80;;
75837;SDS011;64480;52.040;113.502;2023-05-10T04:45:42;23.55;;;16.92;;
75837;SDS011;64480;52.040;113.502;2023-05-10T04:48:49;22.67;;;16.45;;
75837;SDS011;64480;52.040;113.502;2023-05-10T04:51:56;30.25;;;15.80;;
75837;SDS011;64480;52.040;113.502;2023-05-10T04:55:00;28.45;;;15.40;;
75837;SDS011;64480;52.040;113.502;2023-05-10T04:58:18;26.75;;;17.02;;
75837;SDS011;64480;52.040;113.502;2023-05-10T05:01:22;26.80;;;15.90;;
75837;SDS011;64480;52.040;113.502;2023-05-10T05:04:26;23.00;;;11.88;;
75837;SDS011;64480;52.040;113.502;2023-05-10T05:10:52;15.75;;;9.23;;
75837;SDS011;64480;52.040;113.502;2023-05-10T05:14:15;12.25;;;8.20;;
75837;SDS011;64480;52.040;113.502;2023-05-10T05:17:54;13.18;;;8.43;;
75837;SDS011;64480;52.040;113.502;2023-05-10T05:20:58;15.23;;;8.10;;
75837;SDS011;64480;52.040;113.502;2023-05-10T05:24:21;20.77;;;10.63;;
75837;SDS011;64480;52.040;113.502;2023-05-10T05:27:40;22.30;;;13.52;;
75837;SDS011;64480;52.040;113.502;2023-05-10T05:30:45;24.98;;;10.93;;
75837;SDS011;64480;52.040;113.502;2023-05-10T05:34:06;14.40;;;8.00;;
75837;SDS011;64480;52.040;113.502;2023-05-10T05:37:14;13.52;;;7.82;;
75837;SDS011;64480;52.040;113.502;2023-05-10T05:40:19;12.98;;;8.15;;
75837;SDS011;64480;52.040;113.502;2023-05-10T05:43:23;10.05;;;6.95;;
75837;SDS011;64480;52.040;113.502;2023-05-10T05:46:33;16.80;;;10.80;;
75837;SDS011;64480;52.040;113.502;2023-05-10T05:49:37;12.48;;;8.45;;
75837;SDS011;64480;52.040;113.502;2023-05-10T05:52:42;13.68;;;7.63;;
75837;SDS011;64480;52.040;113.502;2023-05-10T05:55:52;11.75;;;7.47;;
75837;SDS011;64480;52.040;113.502;2023-05-10T05:59:53;13.77;;;7.05;;
75837;SDS011;64480;52.040;113.502;2023-05-10T06:02:56;18.35;;;6.50;;
75837;SDS011;64480;52.040;113.502;2023-05-10T06:06:01;10.55;;;6.97;;
75837;SDS011;64480;52.040;113.502;2023-05-10T06:09:14;12.15;;;6.43;;
75837;SDS011;64480;52.040;113.502;2023-05-10T06:12:35;14.88;;;7.75;;
75837;SDS011;64480;52.040;113.502;2023-05-10T06:15:50;10.77;;;5.90;;
75837;SDS011;64480;52.040;113.502;2023-05-10T06:18:54;14.70;;;8.07;;
75837;SDS011;64480;52.040;113.502;2023-05-10T06:21:59;18.33;;;7.90;;
75837;SDS011;64480;52.040;113.502;2023-05-10T06:25:10;13.20;;;8.75;;
75837;SDS011;64480;52.040;113.502;2023-05-10T06:28:15;17.85;;;9.02;;
75837;SDS011;64480;52.040;113.502;2023-05-10T06:31:18;22.05;;;9.23;;
75837;SDS011;64480;52.040;113.502;2023-05-10T06:34:28;18.38;;;7.57;;
75837;SDS011;64480;52.040;113.502;2023-05-10T06:37:45;16.08;;;8.38;;
75837;SDS011;64480;52.040;113.502;2023-05-10T06:40:50;24.25;;;8.45;;
75837;SDS011;64480;52.040;113.502;2023-05-10T06:44:02;18.77;;;7.97;;
75837;SDS011;64480;52.040;113.502;2023-05-10T06:47:08;15.82;;;8.35;;
75837;SDS011;64480;52.040;113.502;2023-05-10T06:50:25;14.02;;;8.88;;
75837;SDS011;64480;52.040;113.502;2023-05-10T06:53:43;15.13;;;8.73;;
75837;SDS011;64480;52.040;113.502;2023-05-10T06:57:05;13.13;;;7.90;;
75837;SDS011;64480;52.040;113.502;2023-05-10T07:00:29;18.75;;;10.45;;
75837;SDS011;64480;52.040;113.502;2023-05-10T07:03:46;17.60;;;9.30;;
75837;SDS011;64480;52.040;113.502;2023-05-10T07:07:04;15.77;;;10.65;;
75837;SDS011;64480;52.040;113.502;2023-05-10T07:10:19;17.55;;;10.25;;
75837;SDS011;64480;52.040;113.502;2023-05-10T07:13:22;24.42;;;10.70;;
75837;SDS011;64480;52.040;113.502;2023-05-10T07:16:29;14.90;;;9.15;;
75837;SDS011;64480;52.040;113.502;2023-05-10T07:19:35;52.30;;;11.98;;
75837;SDS011;64480;52.040;113.502;2023-05-10T07:22:41;21.25;;;9.75;;
75837;SDS011;64480;52.040;113.502;2023-05-10T07:25:46;20.55;;;9.65;;
75837;SDS011;64480;52.040;113.502;2023-05-10T07:28:57;16.83;;;8.50;;
75837;SDS011;64480;52.040;113.502;2023-05-10T07:32:04;17.90;;;8.55;;
75837;SDS011;64480;52.040;113.502;2023-05-10T07:35:15;56.45;;;11.80;;
75837;SDS011;64480;52.040;113.502;2023-05-10T07:38:19;15.75;;;9.38;;
75837;SDS011;64480;52.040;113.502;2023-05-10T07:41:29;14.55;;;9.40;;
75837;SDS011;64480;52.040;113.502;2023-05-10T07:44:38;12.38;;;8.50;;
75837;SDS011;64480;52.040;113.502;2023-05-10T07:47:46;17.60;;;9.13;;
75837;SDS011;64480;52.040;113.502;2023-05-10T07:50:51;14.40;;;8.20;;
75837;SDS011;64480;52.040;113.502;2023-05-10T07:54:01;19.73;;;8.95;;
75837;SDS011;64480;52.040;113.502;2023-05-10T07:57:08;24.98;;;9.50;;
75837;SDS011;64480;52.040;113.502;2023-05-10T08:00:12;16.67;;;8.93;;
75837;SDS011;64480;52.040;113.502;2023-05-10T08:03:19;19.80;;;9.65;;
75837;SDS011;64480;52.040;113.502;2023-05-10T08:06:34;12.05;;;8.35;;
75837;SDS011;64480;52.040;113.502;2023-05-10T08:09:46;31.48;;;17.45;;
75837;SDS011;64480;52.040;113.502;2023-05-10T08:12:50;16.30;;;9.52;;
75837;SDS011;64480;52.040;113.502;2023-05-10T08:15:57;22.58;;;10.20;;
75837;SDS011;64480;52.040;113.502;2023-05-10T08:19:09;16.02;;;8.77;;
75837;SDS011;64480;52.040;113.502;2023-05-10T08:22:14;16.55;;;8.20;;
75837;SDS011;64480;52.040;113.502;2023-05-10T08:25:18;29.05;;;12.13;;
75837;SDS011;64480;52.040;113.502;2023-05-10T08:28:23;19.20;;;9.20;;
75837;SDS011;64480;52.040;113.502;2023-05-10T08:31:27;20.95;;;8.52;;
75837;SDS011;64480;52.040;113.502;2023-05-10T08:34:30;17.58;;;10.43;;
75837;SDS011;64480;52.040;113.502;2023-05-10T08:37:34;18.65;;;9.65;;
75837;SDS011;64480;52.040;113.502;2023-05-10T08:40:42;19.73;;;9.23;;
75837;SDS011;64480;52.040;113.502;2023-05-10T08:44:06;14.73;;;9.07;;
75837;SDS011;64480;52.040;113.502;2023-05-10T08:47:11;21.42;;;9.52;;
75837;SDS011;64480;52.040;113.502;2023-05-10T08:50:16;27.52;;;9.63;;
75837;SDS011;64480;52.040;113.502;2023-05-10T08:53:24;16.48;;;10.00;;
75837;SDS011;64480;52.040;113.502;2023-05-10T08:56:30;20.80;;;9.73;;
75837;SDS011;64480;52.040;113.502;2023-05-10T08:59:33;26.42;;;18.08;;
75837;SDS011;64480;52.040;113.502;2023-05-10T09:02:37;21.35;;;9.82;;
75837;SDS011;64480;52.040;113.502;2023-05-10T09:05:40;19.77;;;9.90;;
75837;SDS011;64480;52.040;113.502;2023-05-10T09:08:45;19.33;;;8.18;;
75837;SDS011;64480;52.040;113.502;2023-05-10T09:11:55;17.77;;;9.35;;
75837;SDS011;64480;52.040;113.502;2023-05-10T09:14:59;18.95;;;9.52;;
75837;SDS011;64480;52.040;113.502;2023-05-10T09:18:07;16.40;;;9.32;;
75837;SDS011;64480;52.040;113.502;2023-05-10T09:21:11;15.82;;;8.32;;
75837;SDS011;64480;52.040;113.502;2023-05-10T09:25:02;18.17;;;10.05;;
75837;SDS011;64480;52.040;113.502;2023-05-10T09:28:31;16.95;;;8.93;;
75837;SDS011;64480;52.040;113.502;2023-05-10T09:34:58;16.50;;;8.65;;
75837;SDS011;64480;52.040;113.502;2023-05-10T09:38:18;11.35;;;6.53;;
75837;SDS011;64480;52.040;113.502;2023-05-10T09:42:02;14.18;;;5.28;;
75837;SDS011;64480;52.040;113.502;2023-05-10T09:45:11;20.63;;;6.50;;
75837;SDS011;64480;52.040;113.502;2023-05-10T09:48:16;21.63;;;6.93;;
75837;SDS011;64480;52.040;113.502;2023-05-10T09:51:30;23.48;;;5.78;;
75837;SDS011;64480;52.040;113.502;2023-05-10T09:54:54;18.50;;;5.05;;
75837;SDS011;64480;52.040;113.502;2023-05-10T09:57:59;23.00;;;7.32;;
75837;SDS011;64480;52.040;113.502;2023-05-10T10:01:03;22.73;;;5.28;;
75837;SDS011;64480;52.040;113.502;2023-05-10T10:04:07;31.50;;;5.03;;
75837;SDS011;64480;52.040;113.502;2023-05-10T10:07:12;26.52;;;7.05;;
75837;SDS011;64480;52.040;113.502;2023-05-10T10:10:18;18.75;;;5.05;;
75837;SDS011;64480;52.040;113.502;2023-05-10T10:16:31;15.95;;;4.85;;
75837;SDS011;64480;52.040;113.502;2023-05-10T10:19:38;11.23;;;4.90;;
75837;SDS011;64480;52.040;113.502;2023-05-10T10:22:42;17.73;;;5.43;;
75837;SDS011;64480;52.040;113.502;2023-05-10T10:25:48;16.38;;;4.75;;
75837;SDS011;64480;52.040;113.502;2023-05-10T10:32:26;13.65;;;5.13;;
75837;SDS011;64480;52.040;113.502;2023-05-10T10:35:43;13.32;;;4.53;;
75837;SDS011;64480;52.040;113.502;2023-05-10T10:42:03;14.50;;;5.07;;
75837;SDS011;64480;52.040;113.502;2023-05-10T10:45:13;10.05;;;5.00;;
75837;SDS011;64480;52.040;113.502;2023-05-10T10:48:20;16.98;;;9.88;;
75837;SDS011;64480;52.040;113.502;2023-05-10T10:51:28;13.23;;;6.93;;
75837;SDS011;64480;52.040;113.502;2023-05-10T10:54:33;12.93;;;5.28;;
75837;SDS011;64480;52.040;113.502;2023-05-10T11:00:49;8.82;;;5.10;;
75837;SDS011;64480;52.040;113.502;2023-05-10T11:07:26;11.85;;;4.78;;
75837;SDS011;64480;52.040;113.502;2023-05-10T11:10:50;6.53;;;4.13;;
75837;SDS011;64480;52.040;113.502;2023-05-10T11:13:56;9.68;;;4.63;;
75837;SDS011;64480;52.040;113.502;2023-05-10T11:17:27;10.98;;;4.85;;
75837;SDS011;64480;52.040;113.502;2023-05-10T11:20:38;11.05;;;5.95;;
75837;SDS011;64480;52.040;113.502;2023-05-10T11:23:52;10.05;;;5.35;;
75837;SDS011;64480;52.040;113.502;2023-05-10T11:26:59;13.20;;;6.05;;
75837;SDS011;64480;52.040;113.502;2023-05-10T11:30:05;10.65;;;6.00;;
75837;SDS011;64480;52.040;113.502;2023-05-10T11:33:09;14.57;;;5.60;;
75837;SDS011;64480;52.040;113.502;2023-05-10T11:36:18;15.25;;;5.97;;
75837;SDS011;64480;52.040;113.502;2023-05-10T11:39:34;17.33;;;5.47;;
75837;SDS011;64480;52.040;113.502;2023-05-10T11:42:38;9.90;;;6.03;;
75837;SDS011;64480;52.040;113.502;2023-05-10T11:45:41;13.90;;;5.97;;
75837;SDS011;64480;52.040;113.502;2023-05-10T11:48:45;12.95;;;5.25;;
75837;SDS011;64480;52.040;113.502;2023-05-10T11:51:49;14.80;;;5.32;;
75837;SDS011;64480;52.040;113.502;2023-05-10T11:54:53;12.32;;;5.68;;
75837;SDS011;64480;52.040;113.502;2023-05-10T11:57:59;15.65;;;5.68;;
75837;SDS011;64480;52.040;113.502;2023-05-10T12:01:05;18.23;;;4.85;;
75837;SDS011;64480;52.040;113.502;2023-05-10T12:04:10;12.60;;;5.90;;
75837;SDS011;64480;52.040;113.502;2023-05-10T12:07:14;12.05;;;5.18;;
75837;SDS011;64480;52.040;113.502;2023-05-10T12:10:17;9.50;;;5.13;;
75837;SDS011;64480;52.040;113.502;2023-05-10T12:13:29;13.32;;;5.65;;
75837;SDS011;64480;52.040;113.502;2023-05-10T12:16:32;9.73;;;5.53;;
75837;SDS011;64480;52.040;113.502;2023-05-10T12:19:39;11.63;;;4.93;;
75837;SDS011;64480;52.040;113.502;2023-05-10T12:22:55;15.95;;;5.40;;
75837;SDS011;64480;52.040;113.502;2023-05-10T12:26:02;12.18;;;4.95;;
75837;SDS011;64480;52.040;113.502;2023-05-10T12:29:15;12.63;;;4.88;;
75837;SDS011;64480;52.040;113.502;2023-05-10T12:32:19;11.63;;;4.65;;
75837;SDS011;64480;52.040;113.502;2023-05-10T12:35:23;11.70;;;5.38;;
75837;SDS011;64480;52.040;113.502;2023-05-10T12:38:27;11.50;;;5.13;;
75837;SDS011;64480;52.040;113.502;2023-05-10T12:41:32;15.45;;;5.90;;
75837;SDS011;64480;52.040;113.502;2023-05-10T12:44:35;10.98;;;5.90;;
75837;SDS011;64480;52.040;113.502;2023-05-10T12:47:38;12.10;;;6.05;;
75837;SDS011;64480;52.040;113.502;2023-05-10T12:50:45;13.73;;;6.22;;
75837;SDS011;64480;52.040;113.502;2023-05-10T12:53:48;14.77;;;7.63;;
75837;SDS011;64480;52.040;113.502;2023-05-10T12:56:52;15.60;;;6.70;;
75837;SDS011;64480;52.040;113.502;2023-05-10T12:59:55;35.75;;;11.45;;
75837;SDS011;64480;52.040;113.502;2023-05-10T13:02:58;29.80;;;12.13;;
75837;SDS011;64480;52.040;113.502;2023-05-10T13:06:02;23.17;;;9.30;;
75837;SDS011;64480;52.040;113.502;2023-05-10T13:09:05;12.65;;;6.75;;
75837;SDS011;64480;52.040;113.502;2023-05-10T13:12:09;18.67;;;6.47;;
75837;SDS011;64480;52.040;113.502;2023-05-10T13:15:12;14.93;;;7.43;;
75837;SDS011;64480;52.040;113.502;2023-05-10T13:18:16;16.27;;;6.25;;
75837;SDS011;64480;52.040;113.502;2023-05-10T13:21:19;10.98;;;5.20;;
75837;SDS011;64480;52.040;113.502;2023-05-10T13:24:22;15.95;;;5.82;;
75837;SDS011;64480;52.040;113.502;2023-05-10T13:27:26;20.02;;;7.43;;
75837;SDS011;64480;52.040;113.502;2023-05-10T13:30:30;12.48;;;4.95;;
75837;SDS011;64480;52.040;113.502;2023-05-10T13:33:33;17.88;;;6.35;;
75837;SDS011;64480;52.040;113.502;2023-05-10T13:36:37;15.50;;;6.57;;
75837;SDS011;64480;52.040;113.502;2023-05-10T13:39:40;14.45;;;6.63;;
75837;SDS011;64480;52.040;113.502;2023-05-10T13:42:44;22.33;;;7.18;;
75837;SDS011;64480;52.040;113.502;2023-05-10T13:45:47;10.45;;;5.47;;
75837;SDS011;64480;52.040;113.502;2023-05-10T13:48:51;10.55;;;5.10;;
75837;SDS011;64480;52.040;113.502;2023-05-10T13:51:54;10.27;;;5.35;;
75837;SDS011;64480;52.040;113.502;2023-05-10T13:54:57;11.00;;;5.55;;
75837;SDS011;64480;52.040;113.502;2023-05-10T13:58:01;9.68;;;4.32;;
75837;SDS011;64480;52.040;113.502;2023-05-10T14:01:04;8.35;;;4.93;;
75837;SDS011;64480;52.040;113.502;2023-05-10T14:04:07;7.78;;;4.40;;
75837;SDS011;64480;52.040;113.502;2023-05-10T14:07:14;15.18;;;5.43;;
75837;SDS011;64480;52.040;113.502;2023-05-10T14:10:20;15.02;;;5.63;;
75837;SDS011;64480;52.040;113.502;2023-05-10T14:13:24;9.95;;;5.70;;
75837;SDS011;64480;52.040;113.502;2023-05-10T14:16:28;10.82;;;5.57;;
75837;SDS011;64480;52.040;113.502;2023-05-10T14:19:32;8.68;;;5.40;;
75837;SDS011;64480;52.040;113.502;2023-05-10T14:22:36;12.60;;;4.75;;
75837;SDS011;64480;52.040;113.502;2023-05-10T14:25:42;14.75;;;4.65;;
75837;SDS011;64480;52.040;113.502;2023-05-10T14:28:46;14.38;;;5.97;;
75837;SDS011;64480;52.040;113.502;2023-05-10T14:31:50;11.57;;;5.57;;
75837;SDS011;64480;52.040;113.502;2023-05-10T14:34:53;6.88;;;3.90;;
75837;SDS011;64480;52.040;113.502;2023-05-10T14:37:57;14.07;;;5.63;;
75837;SDS011;64480;52.040;113.502;2023-05-10T14:41:01;13.57;;;5.28;;
75837;SDS011;64480;52.040;113.502;2023-05-10T14:44:04;9.40;;;4.57;;
75837;SDS011;64480;52.040;113.502;2023-05-10T14:47:08;10.73;;;5.00;;
75837;SDS011;64480;52.040;113.502;2023-05-10T14:50:13;9.38;;;5.20;;
75837;SDS011;64480;52.040;113.502;2023-05-10T14:53:36;61.63;;;6.05;;
75837;SDS011;64480;52.040;113.502;2023-05-10T14:56:39;7.35;;;4.97;;
75837;SDS011;64480;52.040;113.502;2023-05-10T14:59:44;13.45;;;4.80;;
75837;SDS011;64480;52.040;113.502;2023-05-10T15:02:48;9.75;;;4.68;;
75837;SDS011;64480;52.040;113.502;2023-05-10T15:05:52;11.02;;;4.70;;
75837;SDS011;64480;52.040;113.502;2023-05-10T15:08:56;8.23;;;4.72;;
75837;SDS011;64480;52.040;113.502;2023-05-10T15:12:04;12.63;;;5.07;;
75837;SDS011;64480;52.040;113.502;2023-05-10T15:15:08;13.73;;;4.95;;
75837;SDS011;64480;52.040;113.502;2023-05-10T15:18:11;11.48;;;3.83;;
75837;SDS011;64480;52.040;113.502;2023-05-10T15:21:15;7.90;;;4.07;;
75837;SDS011;64480;52.040;113.502;2023-05-10T15:24:19;9.18;;;4.55;;
75837;SDS011;64480;52.040;113.502;2023-05-10T15:30:35;6.15;;;3.90;;
75837;SDS011;64480;52.040;113.502;2023-05-10T15:34:20;8.90;;;4.20;;
75837;SDS011;64480;52.040;113.502;2023-05-10T15:38:28;10.02;;;4.30;;
75837;SDS011;64480;52.040;113.502;2023-05-10T15:41:32;6.43;;;3.97;;
75837;SDS011;64480;52.040;113.502;2023-05-10T15:44:35;11.38;;;4.25;;
75837;SDS011;64480;52.040;113.502;2023-05-10T15:47:40;14.70;;;4.75;;
75837;SDS011;64480;52.040;113.502;2023-05-10T15:50:44;10.55;;;5.05;;
75837;SDS011;64480;52.040;113.502;2023-05-10T15:53:47;13.32;;;4.50;;
75837;SDS011;64480;52.040;113.502;2023-05-10T15:57:07;8.20;;;4.22;;
75837;SDS011;64480;52.040;113.502;2023-05-10T16:00:11;7.85;;;4.20;;
75837;SDS011;64480;52.040;113.502;2023-05-10T16:03:15;6.88;;;4.03;;
75837;SDS011;64480;52.040;113.502;2023-05-10T16:06:18;10.82;;;4.35;;
75837;SDS011;64480;52.040;113.502;2023-05-10T16:09:21;11.45;;;4.35;;
75837;SDS011;64480;52.040;113.502;2023-05-10T16:12:25;7.93;;;4.43;;
75837;SDS011;64480;52.040;113.502;2023-05-10T16:15:28;9.75;;;4.95;;
75837;SDS011;64480;52.040;113.502;2023-05-10T16:18:32;10.25;;;3.92;;
75837;SDS011;64480;52.040;113.502;2023-05-10T16:21:35;7.65;;;3.85;;
75837;SDS011;64480;52.040;113.502;2023-05-10T16:24:39;7.93;;;3.58;;
75837;SDS011;64480;52.040;113.502;2023-05-10T16:27:43;7.00;;;3.80;;
75837;SDS011;64480;52.040;113.502;2023-05-10T16:30:47;9.30;;;4.25;;
75837;SDS011;64480;52.040;113.502;2023-05-10T16:33:50;10.38;;;3.90;;
75837;SDS011;64480;52.040;113.502;2023-05-10T16:36:54;7.50;;;3.65;;
75837;SDS011;64480;52.040;113.502;2023-05-10T16:39:57;7.43;;;3.72;;
75837;SDS011;64480;52.040;113.502;2023-05-10T16:43:00;9.52;;;4.35;;
75837;SDS011;64480;52.040;113.502;2023-05-10T16:46:08;12.73;;;4.40;;
75837;SDS011;64480;52.040;113.502;2023-05-10T16:49:13;8.75;;;4.35;;
75837;SDS011;64480;52.040;113.502;2023-05-10T16:52:16;11.00;;;3.67;;
75837;SDS011;64480;52.040;113.502;2023-05-10T16:55:19;8.23;;;3.80;;
75837;SDS011;64480;52.040;113.502;2023-05-10T16:58:26;8.60;;;4.13;;
75837;SDS011;64480;52.040;113.502;2023-05-10T17:01:30;11.68;;;3.95;;
75837;SDS011;64480;52.040;113.502;2023-05-10T17:04:35;7.60;;;4.38;;
75837;SDS011;64480;52.040;113.502;2023-05-10T17:07:38;7.13;;;4.68;;
75837;SDS011;64480;52.040;113.502;2023-05-10T17:10:42;6.78;;;4.05;;
75837;SDS011;64480;52.040;113.502;2023-05-10T17:13:45;9.93;;;4.40;;
75837;SDS011;64480;52.040;113.502;2023-05-10T17:16:49;8.55;;;4.25;;
75837;SDS011;64480;52.040;113.502;2023-05-10T17:19:54;12.75;;;4.38;;
75837;SDS011;64480;52.040;113.502;2023-05-10T17:22:57;9.13;;;5.05;;
75837;SDS011;64480;52.040;113.502;2023-05-10T17:26:05;7.60;;;4.07;;
75837;SDS011;64480;52.040;113.502;2023-05-10T17:29:08;7.95;;;4.00;;
75837;SDS011;64480;52.040;113.502;2023-05-10T17:32:12;8.20;;;4.47;;
75837;SDS011;64480;52.040;113.502;2023-05-10T17:35:15;7.20;;;3.38;;
75837;SDS011;64480;52.040;113.502;2023-05-10T17:38:19;6.55;;;3.85;;
75837;SDS011;64480;52.040;113.502;2023-05-10T17:41:22;9.43;;;3.63;;
75837;SDS011;64480;52.040;113.502;2023-05-10T17:44:26;8.30;;;3.95;;
75837;SDS011;64480;52.040;113.502;2023-05-10T17:47:29;9.63;;;3.92;;
75837;SDS011;64480;52.040;113.502;2023-05-10T17:50:32;7.22;;;3.95;;
75837;SDS011;64480;52.040;113.502;2023-05-10T17:53:39;6.50;;;4.25;;
75837;SDS011;64480;52.040;113.502;2023-05-10T17:56:43;9.68;;;3.80;;
75837;SDS011;64480;52.040;113.502;2023-05-10T17:59:46;7.53;;;3.80;;
75837;SDS011;64480;52.040;113.502;2023-05-10T18:02:49;7.97;;;4.13;;
75837;SDS011;64480;52.040;113.502;2023-05-10T18:05:53;7.50;;;4.10;;
75837;SDS011;64480;52.040;113.502;2023-05-10T18:08:56;8.65;;;4.13;;
75837;SDS011;64480;52.040;113.502;2023-05-10T18:12:03;8.48;;;3.53;;
75837;SDS011;64480;52.040;113.502;2023-05-10T18:15:07;9.25;;;4.28;;
75837;SDS011;64480;52.040;113.502;2023-05-10T18:18:11;11.65;;;3.83;;
75837;SDS011;64480;52.040;113.502;2023-05-10T18:21:14;8.32;;;3.40;;
75837;SDS011;64480;52.040;113.502;2023-05-10T18:24:19;8.27;;;3.63;;
75837;SDS011;64480;52.040;113.502;2023-05-10T18:27:39;7.03;;;3.78;;
75837;SDS011;64480;52.040;113.502;2023-05-10T18:30:42;7.60;;;3.78;;
75837;SDS011;64480;52.040;113.502;2023-05-10T18:33:46;8.40;;;3.95;;
75837;SDS011;64480;52.040;113.502;2023-05-10T18:36:49;9.98;;;3.88;;
75837;SDS011;64480;52.040;113.502;2023-05-10T18:39:53;6.00;;;3.33;;
75837;SDS011;64480;52.040;113.502;2023-05-10T18:42:57;8.07;;;4.53;;
75837;SDS011;64480;52.040;113.502;2023-05-10T18:46:00;8.05;;;3.65;;
75837;SDS011;64480;52.040;113.502;2023-05-10T18:49:04;8.63;;;4.07;;
75837;SDS011;64480;52.040;113.502;2023-05-10T18:52:07;6.97;;;3.72;;
75837;SDS011;64480;52.040;113.502;2023-05-10T18:55:12;8.43;;;4.22;;
75837;SDS011;64480;52.040;113.502;2023-05-10T18:58:15;7.28;;;3.92;;
75837;SDS011;64480;52.040;113.502;2023-05-10T19:01:19;9.63;;;3.92;;
75837;SDS011;64480;52.040;113.502;2023-05-10T19:04:22;12.88;;;5.28;;
75837;SDS011;64480;52.040;113.502;2023-05-10T19:07:26;8.30;;;4.35;;
75837;SDS011;64480;52.040;113.502;2023-05-10T19:10:29;9.32;;;4.80;;
75837;SDS011;64480;52.040;113.502;2023-05-10T19:13:32;6.50;;;4.22;;
75837;SDS011;64480;52.040;113.502;2023-05-10T19:16:36;10.20;;;4.72;;
75837;SDS011;64480;52.040;113.502;2023-05-10T19:19:43;9.40;;;4.40;;
75837;SDS011;64480;52.040;113.502;2023-05-10T19:22:47;13.05;;;4.80;;
75837;SDS011;64480;52.040;113.502;2023-05-10T19:26:10;10.30;;;4.22;;
75837;SDS011;64480;52.040;113.502;2023-05-10T19:29:14;11.52;;;4.45;;